Time;durP1;ratioP1;P1;durP2;ratioP2;P2;SDS_P1;SDS_P2;PMS_P1;PMS_P2;Temp;Humidity;BMP_temperature;BMP_pressure;BME280_temperature;BME280_humidity;BME280_pressure;Samples;Min_cycle;Max_cycle;Signal;HPM_P1;HPM_P2
2022/10/28 00:00:48;;;;;;;13.57;3.45;;;16.60;99.90;;;;;;5013452;28;20061;-70
2022/10/28 00:03:13;;;;;;;11.13;2.90;;;16.60;99.90;;;;;;5032903;28;20068;-71
2022/10/28 00:05:39;;;;;;;11.32;3.60;;;16.50;99.90;;;;;;5029995;28;20148;-71
2022/10/28 00:08:05;;;;;;;9.18;3.30;;;16.50;99.90;;;;;;5048812;28;20044;-71
2022/10/28 00:10:30;;;;;;;7.70;2.83;;;16.50;99.90;;;;;;5030182;28;20494;-71
2022/10/28 00:12:56;;;;;;;9.27;2.63;;;16.50;99.90;;;;;;5049978;28;20470;-71
2022/10/28 00:15:22;;;;;;;8.80;2.75;;;16.50;99.90;;;;;;5014031;28;20057;-70
2022/10/28 00:17:48;;;;;;;8.82;2.75;;;16.40;99.90;;;;;;5010453;28;20079;-71
2022/10/28 00:20:14;;;;;;;5.25;2.58;;;16.50;99.90;;;;;;5047898;28;20054;-70
2022/10/28 00:22:41;;;;;;;5.55;2.97;;;16.50;99.90;;;;;;5043162;28;20045;-70
2022/10/28 00:25:07;;;;;;;11.52;2.78;;;16.50;99.90;;;;;;5050272;28;20045;-71
2022/10/28 00:27:32;;;;;;;6.95;2.20;;;16.50;99.90;;;;;;5008794;28;20048;-71
2022/10/28 00:29:59;;;;;;;6.40;2.47;;;16.50;99.90;;;;;;5045025;28;20048;-71
2022/10/28 00:32:24;;;;;;;10.75;2.75;;;16.50;99.90;;;;;;5036651;28;20052;-71
2022/10/28 00:34:50;;;;;;;8.10;2.92;;;16.50;99.90;;;;;;5037489;28;20049;-71
2022/10/28 00:37:16;;;;;;;6.90;2.90;;;16.50;99.90;;;;;;5038622;28;20646;-71
2022/10/28 00:39:41;;;;;;;11.70;2.75;;;16.50;99.90;;;;;;5025386;28;20060;-71
2022/10/28 00:42:09;;;;;;;8.52;2.92;;;16.40;99.90;;;;;;5028368;28;20045;-71
2022/10/28 00:44:53;;;;;;;9.15;2.53;;;16.50;99.90;;;;;;5028518;28;20930;-71
2022/10/28 00:47:50;;;;;;;7.35;2.90;;;16.50;99.90;;;;;;5036722;28;20068;-71
2022/10/28 00:50:36;;;;;;;8.32;3.13;;;16.40;99.90;;;;;;5027694;28;20056;-71
2022/10/28 00:53:07;;;;;;;10.50;2.70;;;16.40;99.90;;;;;;5045714;28;20579;-71
2022/10/28 00:55:32;;;;;;;8.57;2.50;;;16.30;99.90;;;;;;5029270;28;20363;-71
2022/10/28 00:57:58;;;;;;;11.32;3.05;;;16.20;99.90;;;;;;5005573;28;20117;-71
2022/10/28 01:00:24;;;;;;;8.60;2.70;;;16.10;99.90;;;;;;5040631;28;20053;-71
2022/10/28 01:02:50;;;;;;;8.13;2.53;;;16.00;99.90;;;;;;5033022;28;20107;-71
2022/10/28 01:05:20;;;;;;;8.88;2.88;;;15.90;99.90;;;;;;5013451;28;20044;-71
2022/10/28 01:07:46;;;;;;;10.07;2.33;;;15.90;99.90;;;;;;5029669;28;20102;-71
2022/10/28 01:10:12;;;;;;;10.95;2.30;;;15.90;99.90;;;;;;5047508;28;20053;-71
2022/10/28 01:12:59;;;;;;;8.90;2.85;;;16.00;99.90;;;;;;5030395;28;20457;-71
2022/10/28 01:15:34;;;;;;;10.00;2.90;;;15.90;99.90;;;;;;5045221;28;20049;-71
2022/10/28 01:18:15;;;;;;;9.25;2.72;;;15.90;99.90;;;;;;5043460;28;20044;-71
2022/10/28 01:21:20;;;;;;;7.18;2.60;;;15.90;99.90;;;;;;5049721;28;20653;-71
2022/10/28 01:23:57;;;;;;;9.45;2.83;;;15.80;99.90;;;;;;5035862;28;20051;-70
2022/10/28 01:27:05;;;;;;;7.72;3.42;;;15.60;99.90;;;;;;5048307;28;20103;-70
2022/10/28 01:30:01;;;;;;;10.93;3.20;;;15.60;99.90;;;;;;4996221;28;20042;-70
2022/10/28 01:32:50;;;;;;;8.82;3.00;;;15.50;99.90;;;;;;5014839;28;20048;-71
2022/10/28 01:35:15;;;;;;;;;;;15.40;99.90;;;;;;5046572;28;20498;-70
2022/10/28 01:37:49;;;;;;;9.85;3.70;;;15.30;99.90;;;;;;5035795;28;19955;-70
2022/10/28 01:40:37;;;;;;;10.13;3.20;;;15.30;99.90;;;;;;5025012;28;20057;-70
2022/10/28 01:43:23;;;;;;;12.57;3.83;;;15.20;99.90;;;;;;5027327;28;20770;-70
2022/10/28 01:45:53;;;;;;;9.63;3.30;;;15.20;99.90;;;;;;5043153;28;20083;-70
2022/10/28 01:48:21;;;;;;;9.18;3.40;;;15.20;99.90;;;;;;5041974;28;20052;-71
2022/10/28 01:50:47;;;;;;;12.63;3.00;;;15.10;99.90;;;;;;5027005;28;20052;-71
2022/10/28 01:53:15;;;;;;;11.15;3.58;;;15.20;99.90;;;;;;5047643;28;20056;-71
2022/10/28 01:55:43;;;;;;;;;;;15.20;99.90;;;;;;5009506;28;20421;-71
2022/10/28 01:58:10;;;;;;;7.13;3.05;;;15.20;99.90;;;;;;5030044;28;19916;-71
2022/10/28 02:00:36;;;;;;;12.48;3.65;;;15.20;99.90;;;;;;5031327;28;20045;-71
2022/10/28 02:03:01;;;;;;;9.13;3.42;;;15.20;99.90;;;;;;5031147;28;20051;-71
2022/10/28 02:05:47;;;;;;;7.03;3.40;;;15.20;99.90;;;;;;5009600;28;20053;-71
2022/10/28 02:08:39;;;;;;;9.95;2.97;;;15.20;99.90;;;;;;5024994;28;20048;-71
2022/10/28 02:11:25;;;;;;;7.00;2.85;;;15.20;99.90;;;;;;5030075;28;20395;-71
2022/10/28 02:13:54;;;;;;;8.60;3.10;;;15.20;99.90;;;;;;5041870;28;20049;-70
2022/10/28 02:16:32;;;;;;;11.07;4.00;;;15.10;99.90;;;;;;5024209;28;20048;-70
2022/10/28 02:19:22;;;;;;;10.60;3.25;;;15.10;99.90;;;;;;5045704;28;20060;-70
2022/10/28 02:22:20;;;;;;;10.57;3.00;;;15.10;99.90;;;;;;5057341;28;20782;-70
2022/10/28 02:25:00;;;;;;;10.98;3.28;;;15.10;99.90;;;;;;5029075;28;20047;-70
2022/10/28 02:27:46;;;;;;;9.05;3.08;;;15.10;99.90;;;;;;5044510;28;20045;-71
2022/10/28 02:30:48;;;;;;;7.22;3.05;;;15.00;99.90;;;;;;5032104;28;20041;-70
2022/10/28 02:33:20;;;;;;;8.55;2.85;;;15.00;99.90;;;;;;5045203;28;20151;-70
2022/10/28 02:35:53;;;;;;;9.07;3.50;;;15.10;99.90;;;;;;5029961;28;20047;-70
2022/10/28 02:38:25;;;;;;;7.90;3.25;;;15.10;99.90;;;;;;5015123;28;20055;-71
2022/10/28 02:40:52;;;;;;;7.75;2.75;;;15.10;99.90;;;;;;5013134;28;20044;-70
2022/10/28 02:43:18;;;;;;;10.57;3.08;;;15.10;99.90;;;;;;5007812;28;20056;-70
2022/10/28 02:45:47;;;;;;;8.18;3.75;;;15.10;99.90;;;;;;5013162;28;20421;-70
2022/10/28 02:48:18;;;;;;;11.25;3.80;;;15.10;99.90;;;;;;5010600;28;20108;-70
2022/10/28 02:50:51;;;;;;;9.50;3.13;;;15.10;99.90;;;;;;5019351;28;20210;-70
2022/10/28 02:53:23;;;;;;;9.48;3.15;;;15.10;99.90;;;;;;5034568;28;20083;-70
2022/10/28 02:55:51;;;;;;;10.65;3.03;;;15.10;99.90;;;;;;5010247;28;20052;-70
2022/10/28 02:58:17;;;;;;;11.43;3.10;;;15.10;99.90;;;;;;5022943;28;20049;-70
2022/10/28 03:00:44;;;;;;;12.90;3.50;;;15.00;99.90;;;;;;5026690;28;20084;-70
2022/10/28 03:03:09;;;;;;;7.85;3.28;;;15.00;99.90;;;;;;5039630;28;20056;-70
2022/10/28 03:05:35;;;;;;;8.15;3.00;;;15.00;99.90;;;;;;5014221;28;20045;-70
2022/10/28 03:08:01;;;;;;;7.43;3.13;;;15.00;99.90;;;;;;5011451;28;20046;-70
2022/10/28 03:10:27;;;;;;;9.10;3.13;;;15.00;99.90;;;;;;4994436;28;20129;-70
2022/10/28 03:12:52;;;;;;;14.73;3.63;;;15.00;99.90;;;;;;5000477;28;20047;-70
2022/10/28 03:15:18;;;;;;;13.68;3.25;;;15.10;99.90;;;;;;5029743;28;20046;-70
2022/10/28 03:17:44;;;;;;;8.95;3.28;;;15.10;99.90;;;;;;5033869;28;20545;-70
2022/10/28 03:20:10;;;;;;;10.52;3.58;;;15.10;99.90;;;;;;5049710;28;20056;-70
2022/10/28 03:22:35;;;;;;;11.52;3.13;;;15.10;99.90;;;;;;5034033;28;20045;-70
2022/10/28 03:25:01;;;;;;;6.82;2.83;;;15.20;99.90;;;;;;5050552;28;20101;-70
2022/10/28 03:27:27;;;;;;;10.50;3.20;;;15.10;99.90;;;;;;5046297;28;20136;-70
2022/10/28 03:29:53;;;;;;;9.88;3.30;;;15.10;99.90;;;;;;5013824;28;20530;-70
2022/10/28 03:32:18;;;;;;;16.20;3.78;;;15.10;99.90;;;;;;5049520;28;20048;-70
2022/10/28 03:34:46;;;;;;;10.60;3.38;;;15.10;99.90;;;;;;5032003;28;20109;-70
2022/10/28 03:37:12;;;;;;;8.73;3.13;;;15.20;99.90;;;;;;5029009;28;20048;-70
2022/10/28 03:39:38;;;;;;;6.80;2.92;;;15.20;99.90;;;;;;5046234;28;20045;-70
2022/10/28 03:42:04;;;;;;;8.05;3.15;;;15.20;99.90;;;;;;5014563;28;20459;-70
2022/10/28 03:44:29;;;;;;;8.45;3.40;;;15.20;99.90;;;;;;5004585;28;20049;-70
2022/10/28 03:46:55;;;;;;;13.63;3.47;;;15.20;99.90;;;;;;5003799;28;20068;-70
2022/10/28 03:49:21;;;;;;;9.75;4.10;;;15.30;99.90;;;;;;5026864;28;20537;-70
2022/10/28 03:51:47;;;;;;;9.23;3.25;;;15.30;99.90;;;;;;5049329;28;20060;-70
2022/10/28 03:54:16;;;;;;;8.20;3.92;;;15.30;99.90;;;;;;5048337;28;20045;-70
2022/10/28 03:56:43;;;;;;;8.73;3.28;;;15.20;99.90;;;;;;5012492;28;20057;-70
2022/10/28 03:59:09;;;;;;;17.10;3.78;;;15.20;99.90;;;;;;5021419;28;20111;-70
2022/10/28 04:01:35;;;;;;;12.48;3.30;;;15.20;99.90;;;;;;5027222;28;20405;-70
2022/10/28 04:04:01;;;;;;;12.20;3.22;;;15.20;99.90;;;;;;5030045;28;20474;-70
2022/10/28 04:06:26;;;;;;;9.30;3.38;;;15.10;99.90;;;;;;5030486;28;20045;-70
2022/10/28 04:08:52;;;;;;;11.18;3.40;;;15.10;99.90;;;;;;5059657;28;20083;-70
2022/10/28 04:11:18;;;;;;;8.60;3.25;;;15.20;99.90;;;;;;5029066;28;20148;-70
2022/10/28 04:13:44;;;;;;;10.50;3.45;;;15.20;99.90;;;;;;5030837;28;20123;-70
2022/10/28 04:16:10;;;;;;;7.68;3.45;;;15.30;99.90;;;;;;5051328;28;20715;-70
2022/10/28 04:18:35;;;;;;;13.80;3.17;;;15.30;99.90;;;;;;5014418;28;20559;-71
2022/10/28 04:21:02;;;;;;;10.00;3.20;;;15.40;99.90;;;;;;5049166;28;20049;-72
2022/10/28 04:23:28;;;;;;;11.07;3.40;;;15.50;99.90;;;;;;5034889;28;20041;-70
2022/10/28 04:25:53;;;;;;;12.18;3.42;;;15.50;99.90;;;;;;5028428;28;20800;-70
2022/10/28 04:28:21;;;;;;;14.25;4.03;;;15.50;99.90;;;;;;5017004;28;20075;-70
2022/10/28 04:30:47;;;;;;;10.07;3.35;;;15.70;99.90;;;;;;5015964;28;20057;-70
2022/10/28 04:33:13;;;;;;;7.90;3.17;;;15.70;99.90;;;;;;5030259;28;20118;-70
2022/10/28 04:35:41;;;;;;;11.57;3.22;;;15.80;99.90;;;;;;5045166;28;20147;-72
2022/10/28 04:38:08;;;;;;;9.35;3.85;;;15.80;99.90;;;;;;5010999;28;20053;-70
2022/10/28 04:40:33;;;;;;;10.52;3.50;;;15.90;99.90;;;;;;5031919;28;20048;-70
2022/10/28 04:42:59;;;;;;;11.88;3.50;;;15.90;99.90;;;;;;5014275;28;20041;-70
2022/10/28 04:45:25;;;;;;;8.02;3.00;;;15.90;99.90;;;;;;5016078;28;20037;-70
2022/10/28 04:48:01;;;;;;;11.68;3.80;;;15.90;99.90;;;;;;5029451;28;20128;-70
2022/10/28 04:50:27;;;;;;;12.80;3.55;;;15.90;99.90;;;;;;5028191;28;20060;-71
2022/10/28 04:52:52;;;;;;;14.40;3.92;;;15.90;99.90;;;;;;5024897;28;20053;-70
2022/10/28 04:55:19;;;;;;;13.23;3.20;;;15.90;99.90;;;;;;5032593;28;20374;-70
2022/10/28 04:57:52;;;;;;;12.80;3.90;;;15.90;99.90;;;;;;5049533;28;20087;-69
2022/10/28 05:00:18;;;;;;;9.55;3.00;;;16.00;99.90;;;;;;5018731;28;20064;-69
2022/10/28 05:02:44;;;;;;;10.50;3.50;;;16.00;99.90;;;;;;5046939;28;20405;-70
2022/10/28 05:05:09;;;;;;;14.98;4.00;;;16.00;99.90;;;;;;5028632;28;20079;-69
2022/10/28 05:07:35;;;;;;;10.15;3.00;;;16.00;99.90;;;;;;5048651;28;20431;-70
2022/10/28 05:10:01;;;;;;;8.73;3.30;;;16.00;99.90;;;;;;5015115;28;20497;-70
2022/10/28 05:12:26;;;;;;;12.65;3.60;;;16.00;99.90;;;;;;5032158;28;20056;-70
2022/10/28 05:14:52;;;;;;;12.55;4.60;;;16.00;99.90;;;;;;5012027;28;20387;-70
2022/10/28 05:17:18;;;;;;;11.40;3.15;;;16.00;99.90;;;;;;5025912;28;20437;-70
2022/10/28 05:19:44;;;;;;;11.95;3.65;;;16.00;99.90;;;;;;5032038;28;20086;-70
2022/10/28 05:22:10;;;;;;;16.60;3.35;;;16.00;99.90;;;;;;5011953;28;20046;-70
2022/10/28 05:24:35;;;;;;;12.20;3.38;;;16.00;99.90;;;;;;5041091;28;20079;-70
2022/10/28 05:27:01;;;;;;;10.15;3.22;;;16.00;99.90;;;;;;5025239;28;20041;-70
2022/10/28 05:29:28;;;;;;;11.05;3.38;;;16.00;99.90;;;;;;5026106;28;20120;-70
2022/10/28 05:31:54;;;;;;;11.05;3.25;;;16.00;99.90;;;;;;5008388;28;20045;-70
2022/10/28 05:34:19;;;;;;;21.55;3.33;;;16.00;99.90;;;;;;5029798;28;20045;-70
2022/10/28 05:36:46;;;;;;;11.82;3.70;;;16.00;99.90;;;;;;5048836;28;20049;-70
2022/10/28 05:39:12;;;;;;;14.43;3.10;;;16.00;99.90;;;;;;5020583;28;20070;-70
2022/10/28 05:41:38;;;;;;;12.20;3.58;;;16.00;99.90;;;;;;5039796;28;20057;-70
2022/10/28 05:44:04;;;;;;;7.88;3.40;;;16.00;99.90;;;;;;5015141;28;20056;-70
2022/10/28 05:46:30;;;;;;;11.80;3.53;;;16.00;99.90;;;;;;5005331;28;20050;-70
2022/10/28 05:48:56;;;;;;;10.77;3.28;;;16.00;99.90;;;;;;5018405;28;20056;-71
2022/10/28 05:51:21;;;;;;;7.57;2.88;;;15.90;99.90;;;;;;5026921;28;20057;-71
2022/10/28 05:53:49;;;;;;;12.45;3.72;;;16.00;99.90;;;;;;5024604;28;20123;-71
2022/10/28 05:56:18;;;;;;;10.35;3.80;;;16.00;99.90;;;;;;5014106;28;20053;-70
2022/10/28 05:58:43;;;;;;;12.30;3.35;;;16.00;99.90;;;;;;5011164;28;20052;-70
2022/10/28 06:01:09;;;;;;;13.52;3.38;;;16.00;99.90;;;;;;5024218;28;20815;-71
2022/10/28 06:03:35;;;;;;;11.90;3.15;;;16.00;99.90;;;;;;5048723;28;20049;-70
2022/10/28 06:06:01;;;;;;;12.15;3.47;;;16.00;99.90;;;;;;5008236;28;20072;-70
2022/10/28 06:08:26;;;;;;;12.77;3.72;;;16.00;99.90;;;;;;5025417;28;20049;-70
2022/10/28 06:10:53;;;;;;;11.82;3.60;;;16.00;99.90;;;;;;5012271;28;20045;-70
2022/10/28 06:13:19;;;;;;;10.18;3.28;;;16.00;99.90;;;;;;5047556;28;20621;-70
2022/10/28 06:15:51;;;;;;;13.75;3.65;;;16.00;99.90;;;;;;5014945;28;20049;-70
2022/10/28 06:18:17;;;;;;;12.27;3.50;;;16.00;99.90;;;;;;5040303;28;20053;-70
2022/10/28 06:20:44;;;;;;;10.93;3.33;;;16.00;99.90;;;;;;5008869;28;20056;-70
2022/10/28 06:23:09;;;;;;;13.57;3.63;;;16.00;99.90;;;;;;5030787;28;20048;-70
2022/10/28 06:25:35;;;;;;;8.25;3.25;;;16.00;99.90;;;;;;5010883;28;20049;-71
2022/10/28 06:28:03;;;;;;;12.75;3.42;;;16.00;99.90;;;;;;5014141;28;20127;-71
2022/10/28 06:30:29;;;;;;;16.65;3.55;;;16.00;99.90;;;;;;5029886;28;20494;-71
2022/10/28 06:32:58;;;;;;;8.18;3.67;;;15.90;99.90;;;;;;5043217;28;20045;-70
2022/10/28 06:35:23;;;;;;;11.02;3.92;;;16.00;99.90;;;;;;5047013;28;20083;-71
2022/10/28 06:37:56;;;;;;;15.77;4.53;;;16.00;99.90;;;;;;5013373;28;20068;-71
2022/10/28 06:40:22;;;;;;;13.75;3.90;;;15.90;99.90;;;;;;5016830;28;20041;-71
2022/10/28 06:42:47;;;;;;;8.45;3.25;;;15.90;99.90;;;;;;5011215;28;20103;-71
2022/10/28 06:45:13;;;;;;;13.90;3.33;;;15.90;99.90;;;;;;5040996;28;20048;-71
2022/10/28 06:47:39;;;;;;;11.57;3.17;;;15.90;99.90;;;;;;5030737;28;20040;-70
2022/10/28 06:50:05;;;;;;;14.98;3.75;;;15.90;99.90;;;;;;5004767;28;20397;-71
2022/10/28 06:52:31;;;;;;;12.52;3.35;;;15.90;99.90;;;;;;5013461;28;20051;-70
2022/10/28 06:54:57;;;;;;;14.32;3.70;;;16.00;99.90;;;;;;5033743;28;20044;-71
2022/10/28 06:57:22;;;;;;;13.27;3.00;;;16.00;99.90;;;;;;5044367;28;20517;-70
2022/10/28 06:59:48;;;;;;;10.15;2.75;;;16.00;99.90;;;;;;5016791;28;20128;-70
2022/10/28 07:02:14;;;;;;;8.57;2.90;;;16.10;99.90;;;;;;5029434;28;20115;-69
2022/10/28 07:04:41;;;;;;;13.82;3.08;;;16.10;99.90;;;;;;5015363;28;20049;-69
2022/10/28 07:07:06;;;;;;;13.32;3.17;;;16.20;99.90;;;;;;5026187;28;20103;-69
2022/10/28 07:09:32;;;;;;;9.98;3.15;;;16.20;99.90;;;;;;5027615;28;20050;-69
2022/10/28 07:11:58;;;;;;;14.52;3.53;;;16.30;99.90;;;;;;5050312;28;20076;-70
2022/10/28 07:14:24;;;;;;;12.00;3.05;;;16.30;99.90;;;;;;5046896;28;20128;-70
2022/10/28 07:16:49;;;;;;;9.68;2.80;;;16.40;99.90;;;;;;5051146;28;20053;-70
2022/10/28 07:19:15;;;;;;;11.90;3.60;;;16.40;99.90;;;;;;5051059;28;20070;-69
2022/10/28 07:21:41;;;;;;;14.50;4.65;;;16.60;99.90;;;;;;5026896;28;20134;-69
2022/10/28 07:24:07;;;;;;;11.50;3.20;;;16.60;99.90;;;;;;5033210;28;20059;-69
2022/10/28 07:26:33;;;;;;;12.63;2.97;;;16.70;99.90;;;;;;5029030;28;20557;-70
2022/10/28 07:28:58;;;;;;;15.93;3.50;;;16.70;99.90;;;;;;5026089;28;20053;-70
2022/10/28 07:31:26;;;;;;;13.27;2.80;;;16.80;99.90;;;;;;5032067;28;20447;-69
2022/10/28 07:33:52;;;;;;;11.40;2.92;;;16.80;99.90;;;;;;5050724;28;20056;-69
2022/10/28 07:36:18;;;;;;;12.13;3.08;;;16.90;99.90;;;;;;5016990;28;20044;-69
2022/10/28 07:38:46;;;;;;;9.32;2.90;;;17.00;99.90;;;;;;5027452;28;20382;-69
2022/10/28 07:41:12;;;;;;;;;;;17.10;99.90;;;;;;5050071;28;20049;-70
2022/10/28 07:43:38;;;;;;;12.00;2.90;;;17.10;99.90;;;;;;5050006;28;19917;-70
2022/10/28 07:46:05;;;;;;;11.27;3.03;;;17.10;99.90;;;;;;5016934;28;20041;-70
2022/10/28 07:48:34;;;;;;;14.82;3.05;;;17.20;99.90;;;;;;5042459;28;20045;-70
2022/10/28 07:51:03;;;;;;;13.30;3.13;;;17.20;99.90;;;;;;5045403;28;20131;-70
2022/10/28 07:53:29;;;;;;;13.05;3.35;;;17.30;99.90;;;;;;5046959;28;20059;-70
2022/10/28 07:55:56;;;;;;;10.68;3.20;;;17.40;99.90;;;;;;5040966;28;20049;-69
2022/10/28 07:58:23;;;;;;;10.88;2.60;;;17.50;99.90;;;;;;5049233;28;20049;-70
2022/10/28 08:00:50;;;;;;;10.82;2.80;;;17.50;99.90;;;;;;5010110;28;20064;-70
2022/10/28 08:03:16;;;;;;;11.00;3.22;;;17.60;99.90;;;;;;5026604;28;20430;-70
2022/10/28 08:05:42;;;;;;;9.05;2.67;;;17.70;99.90;;;;;;5017629;28;20049;-70
2022/10/28 08:08:07;;;;;;;8.05;2.95;;;17.70;99.90;;;;;;5023650;28;20045;-70
2022/10/28 08:10:33;;;;;;;13.52;3.15;;;17.80;99.90;;;;;;5045758;28;20135;-69
2022/10/28 08:13:00;;;;;;;11.45;2.95;;;17.90;99.90;;;;;;5049102;28;20049;-70
2022/10/28 08:15:27;;;;;;;10.82;3.22;;;17.90;99.90;;;;;;5024294;28;20045;-69
2022/10/28 08:17:53;;;;;;;14.65;3.60;;;17.90;99.90;;;;;;5010110;28;20037;-70
2022/10/28 08:20:19;;;;;;;11.70;3.28;;;18.00;99.90;;;;;;5055634;28;20056;-70
2022/10/28 08:22:45;;;;;;;10.73;2.88;;;18.00;99.90;;;;;;5049728;28;20041;-70
2022/10/28 08:25:10;;;;;;;13.60;3.13;;;18.00;99.90;;;;;;5046970;28;20049;-70
2022/10/28 08:27:36;;;;;;;11.23;2.80;;;18.10;99.90;;;;;;5003151;28;20665;-70
2022/10/28 08:30:02;;;;;;;10.18;2.88;;;18.20;99.90;;;;;;5049471;28;20045;-69
2022/10/28 08:32:29;;;;;;;14.82;3.15;;;18.20;99.90;;;;;;5028708;28;20486;-69
2022/10/28 08:34:55;;;;;;;17.60;3.05;;;18.30;99.90;;;;;;5003333;28;20128;-69
2022/10/28 08:37:21;;;;;;;8.50;2.60;;;18.40;99.90;;;;;;5035435;28;20133;-69
2022/10/28 08:39:48;;;;;;;10.07;2.97;;;18.40;99.90;;;;;;5003626;28;20052;-69
2022/10/28 08:42:32;;;;;;;10.93;3.00;;;18.50;99.90;;;;;;5048449;28;20041;-69
2022/10/28 08:45:23;;;;;;;13.65;2.95;;;18.50;99.90;;;;;;5039419;28;20073;-69
2022/10/28 08:48:10;;;;;;;14.07;4.13;;;18.60;99.90;;;;;;5023544;28;20045;-70
2022/10/28 08:50:51;;;;;;;17.35;3.17;;;18.70;99.90;;;;;;5026611;28;20539;-70
2022/10/28 08:53:26;;;;;;;10.70;2.30;;;18.80;99.90;;;;;;5024785;28;20070;-70
2022/10/28 08:55:52;;;;;;;12.10;3.05;;;19.00;99.90;;;;;;5032870;28;20063;-69
2022/10/28 08:58:23;;;;;;;10.15;2.95;;;19.20;99.90;;;;;;5015459;28;20044;-69
2022/10/28 09:00:52;;;;;;;10.23;3.10;;;19.30;99.90;;;;;;5049429;28;20053;-69
2022/10/28 09:03:19;;;;;;;11.43;2.45;;;19.50;99.90;;;;;;5011821;28;20495;-69
2022/10/28 09:05:48;;;;;;;8.75;2.70;;;19.60;99.90;;;;;;5049120;28;20063;-69
2022/10/28 09:08:39;;;;;;;8.65;2.25;;;19.70;99.90;;;;;;5012910;28;20041;-69
2022/10/28 09:11:12;;;;;;;10.40;3.05;;;20.10;98.60;;;;;;5005763;28;20073;-68
2022/10/28 09:14:02;;;;;;;9.48;3.20;;;20.20;98.00;;;;;;5023677;28;20059;-69
2022/10/28 09:16:47;;;;;;;11.15;3.33;;;20.40;97.80;;;;;;5029042;28;20555;-69
2022/10/28 09:19:32;;;;;;;14.40;3.58;;;20.50;97.30;;;;;;5058914;28;20056;-68
2022/10/28 09:22:07;;;;;;;18.67;3.60;;;20.50;97.30;;;;;;5025240;28;20061;-72
2022/10/28 09:24:44;;;;;;;10.95;4.05;;;20.80;96.00;;;;;;5036420;28;20037;-68
2022/10/28 09:27:25;;;;;;;15.38;3.58;;;20.80;96.90;;;;;;5032412;28;20079;-68
2022/10/28 09:30:06;;;;;;;18.23;3.90;;;21.00;95.90;;;;;;5044043;28;20065;-68
2022/10/28 09:32:40;;;;;;;9.75;2.92;;;21.10;95.70;;;;;;5042295;28;20051;-66
2022/10/28 09:35:14;;;;;;;11.05;3.13;;;21.40;94.20;;;;;;5065879;28;20939;-69
2022/10/28 09:37:46;;;;;;;17.17;3.25;;;21.60;93.50;;;;;;5034630;28;20125;-67
2022/10/28 09:40:19;;;;;;;13.05;2.90;;;21.90;92.70;;;;;;5039401;28;20041;-69
2022/10/28 09:43:15;;;;;;;11.93;3.10;;;21.90;92.50;;;;;;5011547;28;20245;-68
2022/10/28 09:45:44;;;;;;;16.80;3.53;;;22.20;91.80;;;;;;5045877;28;20120;-69
2022/10/28 09:48:21;;;;;;;9.50;3.30;;;22.10;91.60;;;;;;5028385;28;20041;-67
2022/10/28 09:50:53;;;;;;;11.13;2.90;;;22.20;91.20;;;;;;5044727;28;20167;-66
2022/10/28 09:53:41;;;;;;;11.45;3.10;;;22.30;90.70;;;;;;5043877;28;20336;-66
2022/10/28 09:56:07;;;;;;;17.27;3.42;;;22.30;90.60;;;;;;5044153;28;20044;-66
2022/10/28 09:58:33;;;;;;;12.18;3.25;;;22.10;90.60;;;;;;5044092;28;20041;-66
2022/10/28 10:00:59;;;;;;;14.40;3.38;;;22.30;90.50;;;;;;5027215;28;20036;-66
2022/10/28 10:03:25;;;;;;;10.05;2.97;;;22.40;90.50;;;;;;5026873;28;20092;-67
2022/10/28 10:05:52;;;;;;;11.88;3.25;;;22.60;90.70;;;;;;5027419;28;20073;-66
2022/10/28 10:08:18;;;;;;;9.50;3.13;;;22.60;88.30;;;;;;5041736;28;20783;-65
2022/10/28 10:11:04;;;;;;;16.55;3.33;;;22.50;88.70;;;;;;5011092;28;20045;-67
2022/10/28 10:13:37;;;;;;;10.43;2.70;;;22.60;90.20;;;;;;5041223;28;20051;-66
2022/10/28 10:16:20;;;;;;;12.30;3.35;;;22.70;88.70;;;;;;5024648;28;20045;-66
2022/10/28 10:18:50;;;;;;;13.15;3.15;;;23.00;88.10;;;;;;5026269;28;20045;-67
2022/10/28 10:21:19;;;;;;;11.82;3.15;;;23.10;89.30;;;;;;5043494;28;20045;-67
2022/10/28 10:23:44;;;;;;;;;;;23.30;87.00;;;;;;5026421;28;20502;-68
2022/10/28 10:26:14;;;;;;;14.25;3.15;;;23.40;86.90;;;;;;5043433;28;19909;-67
2022/10/28 10:28:49;;;;;;;10.23;2.58;;;23.40;84.70;;;;;;5060235;28;20049;-67
2022/10/28 10:31:24;;;;;;;10.57;2.88;;;23.60;84.70;;;;;;5043860;28;20545;-68
2022/10/28 10:33:55;;;;;;;10.80;2.90;;;23.60;84.90;;;;;;5042702;28;20546;-68
2022/10/28 10:36:27;;;;;;;10.40;2.90;;;23.60;84.30;;;;;;5043145;28;20045;-68
2022/10/28 10:38:54;;;;;;;14.40;3.25;;;23.90;84.20;;;;;;5010496;28;20755;-69
2022/10/28 10:41:34;;;;;;;13.43;3.33;;;24.10;83.60;;;;;;5026799;28;20049;-69
2022/10/28 10:43:59;;;;;;;11.55;2.90;;;24.20;83.40;;;;;;5041998;28;20053;-68
2022/10/28 10:46:26;;;;;;;13.85;3.35;;;24.80;81.70;;;;;;5030887;28;20063;-68
2022/10/28 10:49:13;;;;;;;11.95;3.33;;;24.60;78.80;;;;;;5030808;28;20045;-72
2022/10/28 10:51:49;;;;;;;12.00;2.90;;;24.40;80.20;;;;;;4997770;28;20091;-73
2022/10/28 10:54:15;;;;;;;15.45;3.25;;;24.50;80.10;;;;;;5028986;28;20064;-74
2022/10/28 10:56:43;;;;;;;15.18;2.90;;;24.90;79.30;;;;;;5008767;28;20041;-74
2022/10/28 10:59:29;;;;;;;17.38;3.38;;;24.70;79.40;;;;;;5010924;28;20046;-74
2022/10/28 11:01:55;;;;;;;10.50;2.88;;;24.90;78.50;;;;;;5046170;28;20045;-73
2022/10/28 11:04:22;;;;;;;11.25;3.05;;;25.00;76.80;;;;;;4996335;28;20045;-72
2022/10/28 11:06:49;;;;;;;9.95;3.00;;;24.60;76.20;;;;;;4994841;28;20041;-74
2022/10/28 11:09:27;;;;;;;11.23;2.70;;;24.90;77.30;;;;;;5029877;28;20056;-72
2022/10/28 11:11:54;;;;;;;9.70;2.80;;;24.90;76.80;;;;;;5055421;28;20053;-73
2022/10/28 11:14:27;;;;;;;10.50;2.88;;;24.90;77.50;;;;;;5013168;28;20133;-72
2022/10/28 11:16:55;;;;;;;11.13;3.15;;;25.00;74.70;;;;;;5059013;28;20471;-74
2022/10/28 11:19:34;;;;;;;12.30;2.87;;;25.20;76.10;;;;;;5029973;28;20128;-72
2022/10/28 11:22:32;;;;;;;11.02;2.72;;;25.20;74.00;;;;;;5045772;28;20334;-73
2022/10/28 11:25:28;;;;;;;9.30;2.53;;;25.00;75.50;;;;;;5024544;28;20122;-73
2022/10/28 11:28:15;;;;;;;12.90;2.85;;;25.20;75.60;;;;;;5015177;28;20095;-73
2022/10/28 11:30:48;;;;;;;14.43;3.15;;;25.00;76.20;;;;;;5019637;28;20046;-73
2022/10/28 11:33:32;;;;;;;9.82;3.33;;;25.20;74.70;;;;;;5028817;28;20064;-74
2022/10/28 11:36:24;;;;;;;12.38;2.95;;;25.60;74.60;;;;;;5030703;28;20052;-72
2022/10/28 11:39:18;;;;;;;10.05;2.70;;;25.60;74.70;;;;;;5029612;28;20041;-73
2022/10/28 11:41:55;;;;;;;11.00;3.08;;;25.70;74.70;;;;;;4998496;28;20068;-72
2022/10/28 11:44:27;;;;;;;11.32;3.03;;;25.90;73.20;;;;;;5030078;28;20045;-73
2022/10/28 11:47:28;;;;;;;11.98;3.08;;;25.60;75.00;;;;;;5028121;28;20775;-73
2022/10/28 11:50:16;;;;;;;16.00;3.45;;;25.80;73.30;;;;;;5025348;28;20501;-68
2022/10/28 11:53:19;;;;;;;10.45;2.78;;;25.90;73.80;;;;;;5029249;28;20049;-69
2022/10/28 11:56:24;;;;;;;12.23;2.85;;;25.40;74.40;;;;;;5025479;28;20045;-69
2022/10/28 11:59:04;;;;;;;10.65;3.17;;;25.30;73.50;;;;;;5022905;28;20052;-68
2022/10/28 12:01:33;;;;;;;8.52;2.47;;;25.00;74.50;;;;;;5026695;28;20124;-70
2022/10/28 12:04:02;;;;;;;11.20;2.97;;;25.30;74.40;;;;;;5011825;28;20053;-69
2022/10/28 12:06:56;;;;;;;10.73;3.10;;;25.90;73.20;;;;;;5011714;28;20049;-69
2022/10/28 12:09:44;;;;;;;12.20;2.83;;;25.60;71.60;;;;;;5023808;28;20060;-68
2022/10/28 12:12:26;;;;;;;8.82;2.53;;;26.00;73.60;;;;;;5028118;28;20053;-69
2022/10/28 12:15:16;;;;;;;9.13;3.45;;;26.20;70.80;;;;;;5026931;28;20057;-68
2022/10/28 12:18:01;;;;;;;11.10;3.13;;;26.30;70.70;;;;;;5025724;28;20045;-68
2022/10/28 12:20:34;;;;;;;11.52;3.25;;;26.10;71.60;;;;;;5008150;28;20042;-68
2022/10/28 12:23:01;;;;;;;15.32;2.60;;;26.20;70.70;;;;;;5055632;28;20100;-68
2022/10/28 12:25:29;;;;;;;10.85;2.83;;;26.00;72.40;;;;;;5027920;28;20052;-69
2022/10/28 12:27:58;;;;;;;11.55;2.63;;;25.90;71.70;;;;;;5011660;28;20045;-68
2022/10/28 12:30:29;;;;;;;14.73;3.08;;;26.10;71.90;;;;;;5006855;28;20046;-67
2022/10/28 12:33:29;;;;;;;11.45;2.92;;;26.50;72.00;;;;;;5027878;28;20049;-68
2022/10/28 12:36:09;;;;;;;12.80;2.67;;;26.50;70.40;;;;;;5023658;28;20364;-68
2022/10/28 12:38:41;;;;;;;14.80;3.53;;;26.70;70.20;;;;;;5025249;28;20141;-68
2022/10/28 12:41:17;;;;;;;9.85;2.53;;;26.50;70.30;;;;;;5026352;28;20415;-68
2022/10/28 12:43:53;;;;;;;16.00;3.20;;;26.70;69.80;;;;;;5027706;28;20045;-69
2022/10/28 12:46:36;;;;;;;10.10;3.20;;;26.60;70.10;;;;;;5039917;28;20498;-68
2022/10/28 12:49:13;;;;;;;12.38;3.17;;;26.80;69.70;;;;;;5027614;28;20379;-70
2022/10/28 12:51:39;;;;;;;13.60;3.13;;;26.60;70.00;;;;;;5010083;28;20052;-68
2022/10/28 12:54:20;;;;;;;10.68;3.08;;;26.40;70.30;;;;;;5011283;28;20300;-69
2022/10/28 12:56:58;;;;;;;13.52;3.47;;;26.10;70.80;;;;;;5025798;28;20601;-68
2022/10/28 12:59:51;;;;;;;12.60;2.90;;;25.90;71.50;;;;;;5008176;28;20046;-68
2022/10/28 13:02:20;;;;;;;18.38;3.08;;;25.40;74.10;;;;;;5023929;28;20073;-67